sensor_id;sensor_type;location;lat;lon;timestamp;pressure;altitude;pressure_sealevel;temperature;humidity
79250;BME280;68679;51.030;7.584;2023-03-21T00:00:02;99141.78;;;7.60;72.41
79250;BME280;68679;51.030;7.584;2023-03-21T00:02:28;99138.91;;;7.62;71.98
79250;BME280;68679;51.030;7.584;2023-03-21T00:04:53;99135.50;;;7.61;72.14
79250;BME280;68679;51.030;7.584;2023-03-21T00:07:18;99137.06;;;7.62;72.08
79250;BME280;68679;51.030;7.584;2023-03-21T00:09:43;99129.25;;;7.62;72.07
79250;BME280;68679;51.030;7.584;2023-03-21T00:12:09;99125.84;;;7.62;71.98
79250;BME280;68679;51.030;7.584;2023-03-21T00:14:35;99128.22;;;7.63;71.79
79250;BME280;68679;51.030;7.584;2023-03-21T00:17:02;99120.63;;;7.62;72.10
79250;BME280;68679;51.030;7.584;2023-03-21T00:19:28;99124.81;;;7.63;72.08
79250;BME280;68679;51.030;7.584;2023-03-21T00:21:53;99121.41;;;7.62;72.12
79250;BME280;68679;51.030;7.584;2023-03-21T00:24:20;99118.28;;;7.60;71.79
79250;BME280;68679;51.030;7.584;2023-03-21T00:26:46;99121.94;;;7.59;71.66
79250;BME280;68679;51.030;7.584;2023-03-21T00:29:12;99119.06;;;7.61;71.81
79250;BME280;68679;51.030;7.584;2023-03-21T00:31:37;99123.50;;;7.60;71.81
79250;BME280;68679;51.030;7.584;2023-03-21T00:34:02;99122.72;;;7.60;71.96
79250;BME280;68679;51.030;7.584;2023-03-21T00:36:27;99114.88;;;7.60;72.04
79250;BME280;68679;51.030;7.584;2023-03-21T00:38:53;99115.66;;;7.60;72.37
79250;BME280;68679;51.030;7.584;2023-03-21T00:41:19;99114.63;;;7.61;72.36
79250;BME280;68679;51.030;7.584;2023-03-21T00:43:44;99104.97;;;7.62;72.29
79250;BME280;68679;51.030;7.584;2023-03-21T00:46:10;99104.97;;;7.62;72.38
79250;BME280;68679;51.030;7.584;2023-03-21T00:48:35;99100.53;;;7.62;72.42
79250;BME280;68679;51.030;7.584;2023-03-21T00:51:01;99097.16;;;7.62;72.43
79250;BME280;68679;51.030;7.584;2023-03-21T00:53:27;99102.13;;;7.63;72.21
79250;BME280;68679;51.030;7.584;2023-03-21T00:55:52;99096.88;;;7.63;72.30
79250;BME280;68679;51.030;7.584;2023-03-21T00:58:17;99097.16;;;7.62;72.50
79250;BME280;68679;51.030;7.584;2023-03-21T01:00:44;99095.59;;;7.61;72.38
79250;BME280;68679;51.030;7.584;2023-03-21T01:03:14;99085.16;;;7.61;72.37
79250;BME280;68679;51.030;7.584;2023-03-21T01:05:42;99084.63;;;7.59;72.26
79250;BME280;68679;51.030;7.584;2023-03-21T01:08:27;99088.22;;;7.58;72.36
79250;BME280;68679;51.030;7.584;2023-03-21T01:10:53;99088.22;;;7.58;72.59
79250;BME280;68679;51.030;7.584;2023-03-21T01:13:20;99082.00;;;7.59;72.36
79250;BME280;68679;51.030;7.584;2023-03-21T01:15:49;99088.22;;;7.58;72.26
79250;BME280;68679;51.030;7.584;2023-03-21T01:18:17;99084.84;;;7.57;72.16
79250;BME280;68679;51.030;7.584;2023-03-21T01:20:44;99083.81;;;7.58;72.52
79250;BME280;68679;51.030;7.584;2023-03-21T01:23:11;99072.06;;;7.56;72.54
79250;BME280;68679;51.030;7.584;2023-03-21T01:25:36;99073.88;;;7.55;72.72
79250;BME280;68679;51.030;7.584;2023-03-21T01:28:02;99072.84;;;7.56;72.52
79250;BME280;68679;51.030;7.584;2023-03-21T01:30:28;99077.28;;;7.56;72.61
79250;BME280;68679;51.030;7.584;2023-03-21T01:32:53;99068.16;;;7.58;72.19
79250;BME280;68679;51.030;7.584;2023-03-21T01:35:18;99073.13;;;7.60;72.50
79250;BME280;68679;51.030;7.584;2023-03-21T01:37:44;99061.66;;;7.61;72.68
79250;BME280;68679;51.030;7.584;2023-03-21T01:40:20;99068.44;;;7.62;72.79
79250;BME280;68679;51.030;7.584;2023-03-21T01:42:46;99056.44;;;7.61;72.72
79250;BME280;68679;51.030;7.584;2023-03-21T01:48:14;99059.84;;;7.61;73.01
79250;BME280;68679;51.030;7.584;2023-03-21T01:50:40;99062.19;;;7.63;72.86
79250;BME280;68679;51.030;7.584;2023-03-21T01:53:07;99051.75;;;7.63;72.92
79250;BME280;68679;51.030;7.584;2023-03-21T01:55:34;99051.75;;;7.63;72.90
79250;BME280;68679;51.030;7.584;2023-03-21T01:58:02;99049.13;;;7.63;72.88
79250;BME280;68679;51.030;7.584;2023-03-21T02:00:28;99049.13;;;7.63;72.78
79250;BME280;68679;51.030;7.584;2023-03-21T02:02:56;99047.31;;;7.63;72.77
79250;BME280;68679;51.030;7.584;2023-03-21T02:05:34;99045.75;;;7.62;72.88
79250;BME280;68679;51.030;7.584;2023-03-21T02:08:01;99046.53;;;7.63;72.85
79250;BME280;68679;51.030;7.584;2023-03-21T02:10:28;99044.97;;;7.62;72.75
79250;BME280;68679;51.030;7.584;2023-03-21T02:12:57;99044.19;;;7.61;72.86
79250;BME280;68679;51.030;7.584;2023-03-21T02:15:35;99038.19;;;7.61;72.99
79250;BME280;68679;51.030;7.584;2023-03-21T02:18:10;99027.75;;;7.61;72.92
79250;BME280;68679;51.030;7.584;2023-03-21T02:20:46;99029.56;;;7.60;72.88
79250;BME280;68679;51.030;7.584;2023-03-21T02:29:01;99020.94;;;7.60;73.02
79250;BME280;68679;51.030;7.584;2023-03-21T02:31:40;99012.88;;;7.61;73.00
79250;BME280;68679;51.030;7.584;2023-03-21T02:36:59;99001.13;;;7.59;73.07
79250;BME280;68679;51.030;7.584;2023-03-21T02:45:10;99010.75;;;7.58;73.14
79250;BME280;68679;51.030;7.584;2023-03-21T02:47:43;99004.22;;;7.56;73.18
79250;BME280;68679;51.030;7.584;2023-03-21T02:50:15;99008.91;;;7.53;73.17
79250;BME280;68679;51.030;7.584;2023-03-21T02:52:45;98996.66;;;7.54;73.19
79250;BME280;68679;51.030;7.584;2023-03-21T02:55:15;98995.34;;;7.57;73.29
79250;BME280;68679;51.030;7.584;2023-03-21T02:57:43;98995.34;;;7.57;72.89
79250;BME280;68679;51.030;7.584;2023-03-21T03:00:17;98993.78;;;7.56;73.04
79250;BME280;68679;51.030;7.584;2023-03-21T03:02:44;98998.22;;;7.55;72.98
79250;BME280;68679;51.030;7.584;2023-03-21T03:05:19;98996.66;;;7.54;72.89
79250;BME280;68679;51.030;7.584;2023-03-21T03:17:00;98989.28;;;7.46;72.76
79250;BME280;68679;51.030;7.584;2023-03-21T03:19:35;98995.31;;;7.46;72.91
79250;BME280;68679;51.030;7.584;2023-03-21T03:22:08;98991.09;;;7.45;72.94
79250;BME280;68679;51.030;7.584;2023-03-21T03:25:10;98996.31;;;7.45;73.14
79250;BME280;68679;51.030;7.584;2023-03-21T03:27:40;98987.97;;;7.43;73.11
79250;BME280;68679;51.030;7.584;2023-03-21T03:30:09;98995.53;;;7.45;73.24
79250;BME280;68679;51.030;7.584;2023-03-21T03:32:44;98989.53;;;7.44;73.43
79250;BME280;68679;51.030;7.584;2023-03-21T03:35:12;98992.91;;;7.45;73.46
79250;BME280;68679;51.030;7.584;2023-03-21T03:37:39;98985.88;;;7.45;73.35
79250;BME280;68679;51.030;7.584;2023-03-21T03:40:20;98988.75;;;7.44;73.25
79250;BME280;68679;51.030;7.584;2023-03-21T03:42:52;98987.97;;;7.43;73.54
79250;BME280;68679;51.030;7.584;2023-03-21T03:45:19;98985.09;;;7.45;73.52
79250;BME280;68679;51.030;7.584;2023-03-21T03:52:48;98979.63;;;7.41;73.66
79250;BME280;68679;51.030;7.584;2023-03-21T03:55:16;98981.44;;;7.41;73.71
79250;BME280;68679;51.030;7.584;2023-03-21T03:57:43;98988.72;;;7.39;73.43
79250;BME280;68679;51.030;7.584;2023-03-21T04:00:10;98980.63;;;7.35;73.79
79250;BME280;68679;51.030;7.584;2023-03-21T04:02:37;98982.44;;;7.35;73.87
79250;BME280;68679;51.030;7.584;2023-03-21T04:05:03;98975.88;;;7.32;73.58
79250;BME280;68679;51.030;7.584;2023-03-21T04:07:28;98963.88;;;7.31;73.71
79250;BME280;68679;51.030;7.584;2023-03-21T04:09:54;98970.94;;;7.31;73.77
79250;BME280;68679;51.030;7.584;2023-03-21T04:12:19;98970.66;;;7.32;73.54
79250;BME280;68679;51.030;7.584;2023-03-21T04:14:45;98969.09;;;7.31;73.45
79250;BME280;68679;51.030;7.584;2023-03-21T04:17:10;98965.41;;;7.27;73.31
79250;BME280;68679;51.030;7.584;2023-03-21T04:19:35;98959.19;;;7.28;73.16
79250;BME280;68679;51.030;7.584;2023-03-21T04:22:00;98959.94;;;7.23;73.24
79250;BME280;68679;51.030;7.584;2023-03-21T04:24:26;98958.09;;;7.24;73.20
79250;BME280;68679;51.030;7.584;2023-03-21T04:26:51;98964.59;;;7.21;73.28
79250;BME280;68679;51.030;7.584;2023-03-21T04:29:18;98960.16;;;7.17;73.46
79250;BME280;68679;51.030;7.584;2023-03-21T04:31:44;98957.53;;;7.17;73.16
79250;BME280;68679;51.030;7.584;2023-03-21T04:34:10;98956.47;;;7.13;73.35
79250;BME280;68679;51.030;7.584;2023-03-21T04:36:36;98964.28;;;7.13;73.61
79250;BME280;68679;51.030;7.584;2023-03-21T04:39:11;98952.28;;;7.12;73.55
79250;BME280;68679;51.030;7.584;2023-03-21T04:41:38;98951.72;;;7.10;73.72
79250;BME280;68679;51.030;7.584;2023-03-21T04:44:04;98961.38;;;7.09;73.73
79250;BME280;68679;51.030;7.584;2023-03-21T04:46:30;98954.34;;;7.10;73.62
79250;BME280;68679;51.030;7.584;2023-03-21T04:48:55;98952.75;;;7.09;73.63
79250;BME280;68679;51.030;7.584;2023-03-21T04:51:21;98954.59;;;7.08;73.73
79250;BME280;68679;51.030;7.584;2023-03-21T04:53:46;98948.06;;;7.06;73.55
79250;BME280;68679;51.030;7.584;2023-03-21T04:56:14;98950.94;;;7.04;73.87
79250;BME280;68679;51.030;7.584;2023-03-21T04:58:40;98949.09;;;7.05;73.79
79250;BME280;68679;51.030;7.584;2023-03-21T05:01:06;98948.56;;;7.03;73.74
79250;BME280;68679;51.030;7.584;2023-03-21T05:03:31;98952.19;;;7.02;73.51
79250;BME280;68679;51.030;7.584;2023-03-21T05:06:02;98947.50;;;6.98;73.75
79250;BME280;68679;51.030;7.584;2023-03-21T05:08:27;98946.94;;;6.96;73.61
79250;BME280;68679;51.030;7.584;2023-03-21T05:10:53;98945.38;;;6.95;73.88
79250;BME280;68679;51.030;7.584;2023-03-21T05:13:18;98943.81;;;6.94;74.09
79250;BME280;68679;51.030;7.584;2023-03-21T05:15:44;98943.81;;;6.94;73.91
79250;BME280;68679;51.030;7.584;2023-03-21T05:18:09;98949.81;;;6.95;74.03
79250;BME280;68679;51.030;7.584;2023-03-21T05:20:39;98940.41;;;6.94;73.91
79250;BME280;68679;51.030;7.584;2023-03-21T05:23:11;98944.06;;;6.93;74.13
79250;BME280;68679;51.030;7.584;2023-03-21T05:25:38;98944.84;;;6.93;74.09
79250;BME280;68679;51.030;7.584;2023-03-21T05:28:05;98950.31;;;6.92;74.08
79250;BME280;68679;51.030;7.584;2023-03-21T05:30:31;98940.91;;;6.91;73.98
79250;BME280;68679;51.030;7.584;2023-03-21T05:32:57;98941.69;;;6.91;74.10
79250;BME280;68679;51.030;7.584;2023-03-21T05:35:23;98938.56;;;6.89;74.17
79250;BME280;68679;51.030;7.584;2023-03-21T05:37:48;98943.75;;;6.89;74.06
79250;BME280;68679;51.030;7.584;2023-03-21T05:40:13;98930.72;;;6.89;74.39
79250;BME280;68679;51.030;7.584;2023-03-21T05:42:39;98935.69;;;6.91;74.20
79250;BME280;68679;51.030;7.584;2023-03-21T05:45:05;98930.47;;;6.91;74.24
79250;BME280;68679;51.030;7.584;2023-03-21T05:47:30;98931.25;;;6.91;74.46
79250;BME280;68679;51.030;7.584;2023-03-21T05:49:55;98935.69;;;6.91;74.63
79250;BME280;68679;51.030;7.584;2023-03-21T05:52:21;98941.69;;;6.91;74.81
79250;BME280;68679;51.030;7.584;2023-03-21T05:54:46;98941.47;;;6.93;74.51
79250;BME280;68679;51.030;7.584;2023-03-21T05:57:11;98933.63;;;6.93;74.69
79250;BME280;68679;51.030;7.584;2023-03-21T05:59:37;98945.09;;;6.92;74.52
79250;BME280;68679;51.030;7.584;2023-03-21T06:02:02;98938.84;;;6.93;74.87
79250;BME280;68679;51.030;7.584;2023-03-21T06:04:28;98940.94;;;6.96;74.71
79250;BME280;68679;51.030;7.584;2023-03-21T06:06:53;98938.34;;;6.96;74.79
79250;BME280;68679;51.030;7.584;2023-03-21T06:09:20;98941.72;;;6.96;75.09
79250;BME280;68679;51.030;7.584;2023-03-21T06:11:48;98945.69;;;6.99;74.98
79250;BME280;68679;51.030;7.584;2023-03-21T06:14:14;98938.38;;;7.01;75.09
79250;BME280;68679;51.030;7.584;2023-03-21T06:16:39;98946.72;;;6.98;75.06
79250;BME280;68679;51.030;7.584;2023-03-21T06:19:05;98951.16;;;7.03;74.92
79250;BME280;68679;51.030;7.584;2023-03-21T06:21:30;98951.94;;;7.03;74.92
79250;BME280;68679;51.030;7.584;2023-03-21T06:23:56;98948.06;;;7.06;75.08
79250;BME280;68679;51.030;7.584;2023-03-21T06:26:21;98949.13;;;7.10;75.32
79250;BME280;68679;51.030;7.584;2023-03-21T06:28:51;98956.47;;;7.13;75.24
79250;BME280;68679;51.030;7.584;2023-03-21T06:31:16;98948.13;;;7.16;75.52
79250;BME280;68679;51.030;7.584;2023-03-21T06:33:41;98953.16;;;7.22;75.26
79250;BME280;68679;51.030;7.584;2023-03-21T06:36:07;98951.06;;;7.24;75.41
79250;BME280;68679;51.030;7.584;2023-03-21T06:38:33;98960.19;;;7.27;75.25
79250;BME280;68679;51.030;7.584;2023-03-21T06:41:05;98962.06;;;7.32;75.23
79250;BME280;68679;51.030;7.584;2023-03-21T06:43:32;98951.66;;;7.37;74.90
79250;BME280;68679;51.030;7.584;2023-03-21T06:45:57;98945.94;;;7.40;75.21
79250;BME280;68679;51.030;7.584;2023-03-21T06:48:23;98950.13;;;7.41;75.00
79250;BME280;68679;51.030;7.584;2023-03-21T06:50:49;98953.78;;;7.45;74.83
79250;BME280;68679;51.030;7.584;2023-03-21T06:53:15;98945.22;;;7.49;74.46
79250;BME280;68679;51.030;7.584;2023-03-21T06:55:40;98957.50;;;7.54;74.52
79250;BME280;68679;51.030;7.584;2023-03-21T06:58:06;98958.81;;;7.57;73.92
79250;BME280;68679;51.030;7.584;2023-03-21T07:00:31;98957.53;;;7.59;74.08
79250;BME280;68679;51.030;7.584;2023-03-21T07:02:56;98949.97;;;7.63;73.82
79250;BME280;68679;51.030;7.584;2023-03-21T07:05:22;98947.09;;;7.64;73.48
79250;BME280;68679;51.030;7.584;2023-03-21T07:07:47;98952.63;;;7.68;73.63
79250;BME280;68679;51.030;7.584;2023-03-21T07:10:12;98946.09;;;7.70;74.02
79250;BME280;68679;51.030;7.584;2023-03-21T07:12:38;98952.38;;;7.74;73.77
79250;BME280;68679;51.030;7.584;2023-03-21T07:15:05;98947.94;;;7.75;73.80
79250;BME280;68679;51.030;7.584;2023-03-21T07:17:31;98954.25;;;7.79;74.18
79250;BME280;68679;51.030;7.584;2023-03-21T07:19:56;98956.09;;;7.84;73.97
79250;BME280;68679;51.030;7.584;2023-03-21T07:22:21;98960.78;;;7.82;75.12
79250;BME280;68679;51.030;7.584;2023-03-21T07:24:47;98961.84;;;7.86;73.84
79250;BME280;68679;51.030;7.584;2023-03-21T07:27:17;98967.06;;;7.86;74.10
79250;BME280;68679;51.030;7.584;2023-03-21T07:29:42;98966.81;;;7.87;74.96
79250;BME280;68679;51.030;7.584;2023-03-21T07:32:09;98967.84;;;7.86;73.42
79250;BME280;68679;51.030;7.584;2023-03-21T07:34:34;98961.09;;;7.90;73.48
79250;BME280;68679;51.030;7.584;2023-03-21T07:36:59;98966.81;;;7.92;73.95
79250;BME280;68679;51.030;7.584;2023-03-21T07:39:26;98965.56;;;7.95;73.63
79250;BME280;68679;51.030;7.584;2023-03-21T07:41:52;98965.81;;;7.98;73.19
79250;BME280;68679;51.030;7.584;2023-03-21T07:44:20;98973.16;;;8.01;73.01
79250;BME280;68679;51.030;7.584;2023-03-21T07:46:46;98965.31;;;8.01;73.11
79250;BME280;68679;51.030;7.584;2023-03-21T07:49:11;98966.34;;;8.05;72.80
79250;BME280;68679;51.030;7.584;2023-03-21T07:51:36;98961.91;;;8.06;72.93
79250;BME280;68679;51.030;7.584;2023-03-21T07:54:01;98961.91;;;8.06;72.98
79250;BME280;68679;51.030;7.584;2023-03-21T07:56:27;98974.22;;;8.11;73.21
79250;BME280;68679;51.030;7.584;2023-03-21T07:58:53;98969.50;;;8.13;73.53
79250;BME280;68679;51.030;7.584;2023-03-21T08:01:18;98972.94;;;8.18;74.02
79250;BME280;68679;51.030;7.584;2023-03-21T08:03:46;98981.03;;;8.22;73.09
79250;BME280;68679;51.030;7.584;2023-03-21T08:06:12;98977.91;;;8.25;72.99
79250;BME280;68679;51.030;7.584;2023-03-21T08:08:38;98984.47;;;8.27;73.62
79250;BME280;68679;51.030;7.584;2023-03-21T08:11:04;98984.19;;;8.29;73.31
79250;BME280;68679;51.030;7.584;2023-03-21T08:13:29;98985.31;;;8.38;72.99
79250;BME280;68679;51.030;7.584;2023-03-21T08:15:54;98978.75;;;8.36;72.45
79250;BME280;68679;51.030;7.584;2023-03-21T08:18:20;98990.00;;;8.36;72.95
79250;BME280;68679;51.030;7.584;2023-03-21T08:20:49;98986.63;;;8.41;73.11
79250;BME280;68679;51.030;7.584;2023-03-21T08:23:14;98986.91;;;8.44;72.13
79250;BME280;68679;51.030;7.584;2023-03-21T08:25:40;98993.41;;;8.42;73.27
79250;BME280;68679;51.030;7.584;2023-03-21T08:28:05;98993.41;;;8.42;73.94
79250;BME280;68679;51.030;7.584;2023-03-21T08:30:30;98987.66;;;8.40;73.94
79250;BME280;68679;51.030;7.584;2023-03-21T08:32:59;98998.63;;;8.42;74.85
79250;BME280;68679;51.030;7.584;2023-03-21T08:35:25;98997.38;;;8.49;74.87
79250;BME280;68679;51.030;7.584;2023-03-21T08:37:50;98995.25;;;8.46;74.74
79250;BME280;68679;51.030;7.584;2023-03-21T08:40:17;99002.31;;;8.51;73.97
79250;BME280;68679;51.030;7.584;2023-03-21T08:42:43;98998.13;;;8.55;74.77
79250;BME280;68679;51.030;7.584;2023-03-21T08:45:11;99008.06;;;8.53;75.67
79250;BME280;68679;51.030;7.584;2023-03-21T08:47:37;99006.25;;;8.53;75.70
79250;BME280;68679;51.030;7.584;2023-03-21T08:50:04;99006.25;;;8.58;74.96
79250;BME280;68679;51.030;7.584;2023-03-21T08:52:30;98999.19;;;8.59;75.42
79250;BME280;68679;51.030;7.584;2023-03-21T08:54:56;98998.66;;;8.52;75.94
79250;BME280;68679;51.030;7.584;2023-03-21T08:57:21;98995.00;;;8.53;76.13
79250;BME280;68679;51.030;7.584;2023-03-21T08:59:46;98997.13;;;8.56;76.57
79250;BME280;68679;51.030;7.584;2023-03-21T09:02:14;98986.13;;;8.59;75.95
79250;BME280;68679;51.030;7.584;2023-03-21T09:04:40;98992.13;;;8.54;76.35
79250;BME280;68679;51.030;7.584;2023-03-21T09:07:06;98987.44;;;8.56;76.15
79250;BME280;68679;51.030;7.584;2023-03-21T09:09:31;98989.53;;;8.59;75.84
79250;BME280;68679;51.030;7.584;2023-03-21T09:11:57;98995.53;;;8.55;76.51
79250;BME280;68679;51.030;7.584;2023-03-21T09:14:22;98986.66;;;8.61;76.58
79250;BME280;68679;51.030;7.584;2023-03-21T09:16:47;98989.53;;;8.59;77.11
79250;BME280;68679;51.030;7.584;2023-03-21T09:19:13;98988.25;;;8.62;77.20
79250;BME280;68679;51.030;7.584;2023-03-21T09:21:41;98988.50;;;8.66;76.72
79250;BME280;68679;51.030;7.584;2023-03-21T09:24:08;98988.50;;;8.66;78.00
79250;BME280;68679;51.030;7.584;2023-03-21T09:26:34;98988.78;;;8.69;77.19
79250;BME280;68679;51.030;7.584;2023-03-21T09:28:59;98990.31;;;8.65;78.15
79250;BME280;68679;51.030;7.584;2023-03-21T09:31:25;98989.28;;;8.71;78.35
79250;BME280;68679;51.030;7.584;2023-03-21T09:33:52;98980.41;;;8.72;78.89
79250;BME280;68679;51.030;7.584;2023-03-21T09:36:18;98992.19;;;8.75;77.84
79250;BME280;68679;51.030;7.584;2023-03-21T09:38:47;98989.81;;;8.73;79.11
79250;BME280;68679;51.030;7.584;2023-03-21T09:46:49;98989.56;;;8.80;78.29
79250;BME280;68679;51.030;7.584;2023-03-21T09:49:25;98989.31;;;8.86;79.32
79250;BME280;68679;51.030;7.584;2023-03-21T09:51:57;98989.03;;;8.78;78.54
79250;BME280;68679;51.030;7.584;2023-03-21T09:54:29;98987.75;;;8.80;78.90
79250;BME280;68679;51.030;7.584;2023-03-21T09:57:01;98979.91;;;8.80;79.31
79250;BME280;68679;51.030;7.584;2023-03-21T09:59:36;98988.78;;;8.90;79.13
79250;BME280;68679;51.030;7.584;2023-03-21T10:05:11;98982.78;;;8.94;80.40
79250;BME280;68679;51.030;7.584;2023-03-21T10:07:45;98983.03;;;9.03;79.72
79250;BME280;68679;51.030;7.584;2023-03-21T10:10:21;98977.28;;;9.01;79.43
79250;BME280;68679;51.030;7.584;2023-03-21T10:12:51;98972.34;;;9.04;80.25
79250;BME280;68679;51.030;7.584;2023-03-21T10:15:19;98983.81;;;9.03;79.53
79250;BME280;68679;51.030;7.584;2023-03-21T10:17:52;98976.50;;;9.05;79.11
79250;BME280;68679;51.030;7.584;2023-03-21T10:20:22;98972.84;;;9.11;78.52
79250;BME280;68679;51.030;7.584;2023-03-21T10:22:51;98970.47;;;9.10;79.28
79250;BME280;68679;51.030;7.584;2023-03-21T10:28:17;98971.53;;;9.14;79.88
79250;BME280;68679;51.030;7.584;2023-03-21T10:30:50;98961.34;;;9.12;78.78
79250;BME280;68679;51.030;7.584;2023-03-21T10:33:47;98964.47;;;9.14;79.00
79250;BME280;68679;51.030;7.584;2023-03-21T10:36:16;98963.94;;;9.18;78.32
79250;BME280;68679;51.030;7.584;2023-03-21T10:39:02;98949.31;;;9.11;78.32
79250;BME280;68679;51.030;7.584;2023-03-21T10:41:29;98970.22;;;9.11;78.75
79250;BME280;68679;51.030;7.584;2023-03-21T10:44:11;98948.78;;;9.09;79.04
79250;BME280;68679;51.030;7.584;2023-03-21T10:46:49;98945.09;;;9.16;79.18
79250;BME280;68679;51.030;7.584;2023-03-21T10:49:15;98948.78;;;9.14;79.25
79250;BME280;68679;51.030;7.584;2023-03-21T10:51:41;98941.19;;;9.18;79.00
79250;BME280;68679;51.030;7.584;2023-03-21T10:54:11;98942.50;;;9.10;78.43
79250;BME280;68679;51.030;7.584;2023-03-21T10:56:42;98932.56;;;9.18;78.48
79250;BME280;68679;51.030;7.584;2023-03-21T10:59:16;98931.50;;;9.19;78.42
79250;BME280;68679;51.030;7.584;2023-03-21T11:01:47;98926.00;;;9.25;78.49
79250;BME280;68679;51.030;7.584;2023-03-21T11:04:15;98934.41;;;9.22;78.40
79250;BME280;68679;51.030;7.584;2023-03-21T11:06:53;98930.19;;;9.26;78.77
79250;BME280;68679;51.030;7.584;2023-03-21T11:09:24;98932.53;;;9.28;79.15
79250;BME280;68679;51.030;7.584;2023-03-21T11:11:52;98927.28;;;9.28;78.30
79250;BME280;68679;51.030;7.584;2023-03-21T11:17:24;98922.06;;;9.28;79.17
79250;BME280;68679;51.030;7.584;2023-03-21T11:20:00;98923.38;;;9.30;80.03
79250;BME280;68679;51.030;7.584;2023-03-21T11:22:28;98927.28;;;9.28;78.94
79250;BME280;68679;51.030;7.584;2023-03-21T11:24:59;98924.94;;;9.31;79.26
79250;BME280;68679;51.030;7.584;2023-03-21T11:27:28;98921.28;;;9.37;79.35
79250;BME280;68679;51.030;7.584;2023-03-21T11:29:56;98922.06;;;9.38;79.78
79250;BME280;68679;51.030;7.584;2023-03-21T11:32:29;98925.94;;;9.46;80.23
79250;BME280;68679;51.030;7.584;2023-03-21T11:37:53;98916.03;;;9.48;79.18
79250;BME280;68679;51.030;7.584;2023-03-21T11:43:26;98907.09;;;9.49;78.59
79250;BME280;68679;51.030;7.584;2023-03-21T11:46:21;98901.31;;;9.62;78.60
79250;BME280;68679;51.030;7.584;2023-03-21T11:48:48;98896.84;;;9.67;79.05
79250;BME280;68679;51.030;7.584;2023-03-21T11:51:23;98895.78;;;9.68;78.44
79250;BME280;68679;51.030;7.584;2023-03-21T11:56:26;98888.16;;;9.77;77.39
79250;BME280;68679;51.030;7.584;2023-03-21T12:04:46;98867.78;;;9.64;76.23
79250;BME280;68679;51.030;7.584;2023-03-21T12:07:38;98861.75;;;9.63;76.56
79250;BME280;68679;51.030;7.584;2023-03-21T12:13:00;98853.88;;;9.74;75.73
79250;BME280;68679;51.030;7.584;2023-03-21T12:15:38;98850.78;;;9.66;75.20
79250;BME280;68679;51.030;7.584;2023-03-21T12:18:20;98852.78;;;9.80;75.98
79250;BME280;68679;51.030;7.584;2023-03-21T12:21:04;98857.84;;;9.66;74.52
79250;BME280;68679;51.030;7.584;2023-03-21T12:23:44;98860.19;;;9.67;75.59
79250;BME280;68679;51.030;7.584;2023-03-21T12:26:21;98866.69;;;9.70;75.79
79250;BME280;68679;51.030;7.584;2023-03-21T12:37:04;98854.41;;;9.71;74.40
79250;BME280;68679;51.030;7.584;2023-03-21T12:39:36;98858.06;;;9.70;75.91
79250;BME280;68679;51.030;7.584;2023-03-21T12:42:41;98854.16;;;9.67;75.87
79250;BME280;68679;51.030;7.584;2023-03-21T12:45:18;98849.72;;;9.67;76.21
79250;BME280;68679;51.030;7.584;2023-03-21T12:47:52;98853.41;;;9.56;75.92
79250;BME280;68679;51.030;7.584;2023-03-21T12:50:30;98855.75;;;9.63;76.49
79250;BME280;68679;51.030;7.584;2023-03-21T12:53:11;98847.63;;;9.64;77.29
79250;BME280;68679;51.030;7.584;2023-03-21T12:55:39;98848.94;;;9.67;77.17
79250;BME280;68679;51.030;7.584;2023-03-21T12:58:12;98836.63;;;9.62;76.82
79250;BME280;68679;51.030;7.584;2023-03-21T13:00:45;98840.09;;;9.53;75.34
79250;BME280;68679;51.030;7.584;2023-03-21T13:03:18;98833.03;;;9.53;76.53
79250;BME280;68679;51.030;7.584;2023-03-21T13:05:56;98831.19;;;9.59;75.88
79250;BME280;68679;51.030;7.584;2023-03-21T13:08:35;98835.34;;;9.60;75.96
79250;BME280;68679;51.030;7.584;2023-03-21T13:11:03;98840.13;;;9.48;77.37
79250;BME280;68679;51.030;7.584;2023-03-21T13:13:36;98841.38;;;9.55;77.34
79250;BME280;68679;51.030;7.584;2023-03-21T13:19:20;98840.13;;;9.48;76.11
79250;BME280;68679;51.030;7.584;2023-03-21T13:27:00;98840.06;;;9.58;76.61
79250;BME280;68679;51.030;7.584;2023-03-21T13:29:45;98816.78;;;9.56;76.35
79250;BME280;68679;51.030;7.584;2023-03-21T13:32:23;98821.53;;;9.44;77.94
79250;BME280;68679;51.030;7.584;2023-03-21T13:37:40;98827.84;;;9.43;78.20
79250;BME280;68679;51.030;7.584;2023-03-21T13:40:19;98817.31;;;9.53;77.67
79250;BME280;68679;51.030;7.584;2023-03-21T13:42:51;98819.41;;;9.56;77.96
79250;BME280;68679;51.030;7.584;2023-03-21T13:45:30;98814.16;;;9.56;77.36
79250;BME280;68679;51.030;7.584;2023-03-21T13:48:03;98809.19;;;9.55;76.75
79250;BME280;68679;51.030;7.584;2023-03-21T13:50:48;98802.13;;;9.55;76.82
79250;BME280;68679;51.030;7.584;2023-03-21T13:55:45;98790.31;;;9.58;77.33
79250;BME280;68679;51.030;7.584;2023-03-21T13:58:49;98785.84;;;9.63;75.52
79250;BME280;68679;51.030;7.584;2023-03-21T14:04:11;98785.84;;;9.63;76.35
79250;BME280;68679;51.030;7.584;2023-03-21T14:06:42;98777.50;;;9.61;75.97
79250;BME280;68679;51.030;7.584;2023-03-21T14:09:17;98769.13;;;9.59;76.87
79250;BME280;68679;51.030;7.584;2023-03-21T14:11:44;98768.06;;;9.60;76.02
79250;BME280;68679;51.030;7.584;2023-03-21T14:14:12;98775.44;;;9.53;75.67
79250;BME280;68679;51.030;7.584;2023-03-21T14:16:38;98770.25;;;9.48;74.87
79250;BME280;68679;51.030;7.584;2023-03-21T14:19:04;98772.31;;;9.51;75.55
79250;BME280;68679;51.030;7.584;2023-03-21T14:21:34;98770.47;;;9.52;75.13
79250;BME280;68679;51.030;7.584;2023-03-21T14:24:11;98758.69;;;9.54;76.29
79250;BME280;68679;51.030;7.584;2023-03-21T14:26:41;98746.16;;;9.46;76.16
79250;BME280;68679;51.030;7.584;2023-03-21T14:29:08;98742.50;;;9.47;74.41
79250;BME280;68679;51.030;7.584;2023-03-21T14:31:38;98738.09;;;9.37;74.59
79250;BME280;68679;51.030;7.584;2023-03-21T14:34:05;98746.75;;;9.33;75.20
79250;BME280;68679;51.030;7.584;2023-03-21T14:36:38;98749.66;;;9.26;75.89
79250;BME280;68679;51.030;7.584;2023-03-21T14:39:14;98740.22;;;9.30;75.99
79250;BME280;68679;51.030;7.584;2023-03-21T14:41:51;98736.03;;;9.34;75.83
79250;BME280;68679;51.030;7.584;2023-03-21T14:44:20;98733.91;;;9.42;76.04
79250;BME280;68679;51.030;7.584;2023-03-21T14:46:59;98727.34;;;9.44;76.38